Atlantic - Newfoundland: Past 24 Hour Conditions

 

Port aux Basques

09:30 PM NDT 23 September 2014
This table is a summary of hourly weather conditions for the past 24 hours.
Date / Time
(NDT)
Wind(knots) Conditions Visibility(km) Pressure(kPa) Air tempC) Relative humidity(%) Dew pointC)
23 September 2014
21:30 W 15 Light Rain 13 101.9 8 85 6
20:30 WNW 16 Cloudy 15 101.8 8 78 5
19:30 WNW 13 gust 21 Mainly Clear 15 101.7 8 79 5
18:30 W 16 Light Rain 15 101.6 9 83 6
17:30 WNW 18 Cloudy 15 101.5 9 86 7
16:30 WNW 19 Mostly Cloudy 11 101.5 10 89 8
15:30 W 13 Mainly Sunny 15 101.4 12 82 9
14:30 W 13 Mainly Sunny 15 101.4 12 84 9
13:30 W 12 Mostly Cloudy 8 101.3 11 93 10
12:30 W 15 Mostly Cloudy 15 101.3 11 92 10
11:30 W 10 Mostly Cloudy 10 101.2 11 94 10
10:30 W 17 Cloudy 10 101.2 10 97 9
9:30 W 14 Cloudy 15 101.1 11 85 8
8:30 W 18 Cloudy 15 101.0 10 86 8
7:30 W 17 Cloudy 15 100.9 10 86 8
6:30 W 23 gust 28 Cloudy 15 100.8 11 83 8
5:30 WSW 19 Cloudy 15 100.7 10 89 9
4:30 W 17 Cloudy 15 100.7 11 89 9
3:30 W 22 gust 27 Mainly Clear 15 100.6 11 90 10
2:30 W 13 Cloudy 6 100.5 12 96 11
1:30 SW 17 Mostly Cloudy 4 100.4 13 97 12
0:30 SSW 17 Clear 4 100.3 12 99 12
22 September 2014
23:30 SSW 21 Clear 3 100.2 12 100 12
22:30 SSW 22 gust 27 Clear 3 100.2 13 100 13
21:30 S 21 gust 27 Mainly Clear 1 100.1 13 100 13
 
Map of Atlantic - Newfoundland marine weather areas Southwestern Grand Banks - 44138 Banquereau - 44139 Tail of the Bank - 44140 Nickerson Bank - 44251 Northeast Burgeo Bank - 44255 Blanc-Sablon Airport Cap Whittle Chevery Natashquan Airport Heath Point Miscou Island Grand Étang Ingonish Beach North Mountain St.Paul Island J.A. Douglas McCurdy Sydney Airport Charlottetown Airport East Point North Cape Argentia Bonavista Burgeo Cape Race Corner Brook Daniel's Harbour Englee Ferolle Point La Scie Port aux Basques Rocky Harbour Sagona Island St. Anthony Airport St. John's Int'l Airport St. Lawrence Stephenville Airport Twillingate Winterland Wreckhouse Cartwright Airport Mary's Harbour Grates Cove Pool's Island Marticot Island Long Pond Îles de la Madeleine Airport
Legend: buoyBuoy land stationLand Station